Ali Cat — MZCL8 — position and weather

sailwx.info

Track history (hours):
 
Tides and Currents Weather Stations Pressure Air Temp Water Temp Dewpoint Dewpoint Depression Visibility Wind Speed Wind Dir Waves Ship Positions

Ali Cat

Operator: MRCC Clyde

Last reported at 2018-Dec-13 12:17 UTC. Time now 2018-Dec-13 13:30 UTC.
Position N 55°57' W 004°55'.

Length 19 m.

Type: Passenger vessel. MMSI: 235056506.

Date/timePositionNaut miles runAvg speedWind from/ knotsBaromVisibWave heightAir tempDewpointWater temp
2018-Dec-13 12:17N 55°57' W 004°55'1 0.8
2018-Dec-13 11:25N 55°57' W 004°54'1 1.2
2018-Dec-13 10:32N 55°57' W 004°52'1 0.4
2018-Dec-13 07:20N 55°57' W 004°54'1 0.1
2018-Dec-12 21:50N 55°57' W 004°52'1 0.7
2018-Dec-12 20:25N 55°57' W 004°54'1 0.7
2018-Dec-12 19:28N 55°57' W 004°53'0 0.4
2018-Dec-12 18:31N 55°57' W 004°52'010.7
2018-Dec-12 18:30N 55°57' W 004°53'1 1.0
2018-Dec-12 17:23N 55°57' W 004°55'1 1.0
2018-Dec-12 16:28N 55°57' W 004°53'1 0.4
2018-Dec-12 14:05N 55°57' W 004°51'210.9
2018-Dec-12 13:55N 55°57' W 004°55'2 1.2
2018-Dec-12 12:33N 55°57' W 004°52'110.7
2018-Dec-12 12:25N 55°57' W 004°54'0 0.5
2018-Dec-12 11:28N 55°57' W 004°53'1 0.7
2018-Dec-12 10:31N 55°57' W 004°52'0 0.4
2018-Dec-12 09:29N 55°57' W 004°53'1 0.6
2018-Dec-12 08:32N 55°57' W 004°52'110.7
2018-Dec-12 08:25N 55°57' W 004°54'2 1.6
2018-Dec-12 07:29N 55°57' W 004°52'2 0.2
2018-Dec-11 21:41N 55°57' W 004°55'1 0.4
2018-Dec-11 20:25N 55°57' W 004°54'2 1.0
2018-Dec-11 18:36N 55°58' W 004°51'210.0
2018-Dec-11 18:22N 55°57' W 004°55'1 1.2
2018-Dec-11 17:28N 55°57' W 004°53'0 0.0
2018-Dec-11 14:58N 55°57' W 004°53'0 0.0
2018-Dec-11 13:59N 55°57' W 004°53'1 0.6
2018-Dec-11 12:36N 55°58' W 004°51'1 9.9
2018-Dec-11 12:29N 55°57' W 004°54'1 0.8
2018-Dec-11 11:31N 55°57' W 004°52'110.3
2018-Dec-11 11:26N 55°57' W 004°53'1 1.1
2018-Dec-11 10:32N 55°57' W 004°52'110.6
2018-Dec-11 10:29N 55°57' W 004°53'0 0.4
2018-Dec-11 09:32N 55°57' W 004°52'110.1
2018-Dec-11 09:27N 55°57' W 004°53'0 0.1
2018-Dec-11 08:28N 55°57' W 004°53'1 1.3
2018-Dec-11 07:30N 55°57' W 004°51'1 0.1
2018-Dec-10 21:57N 55°58' W 004°50'2 5.1
2018-Dec-10 21:29N 55°57' W 004°54'2 2.1
2018-Dec-10 20:35N 55°58' W 004°51'110.5
2018-Dec-10 20:30N 55°57' W 004°52'1 1.2
2018-Dec-10 19:36N 55°58' W 004°50'110.8
2018-Dec-10 19:29N 55°57' W 004°53'1 0.7
2018-Dec-10 18:36N 55°57' W 004°51'110.2
2018-Dec-10 18:30N 55°57' W 004°53'0 0.1
2018-Dec-10 17:29N 55°57' W 004°53'1 1.5
2018-Dec-10 16:36N 55°58' W 004°51'1 9.9
2018-Dec-10 16:30N 55°57' W 004°52'1 0.4
2018-Dec-10 14:05N 55°57' W 004°51'110.1
2018-Dec-10 13:58N 55°57' W 004°53'2 1.2
2018-Dec-10 12:38N 55°58' W 004°50'110.2
2018-Dec-10 12:30N 55°57' W 004°52'1 2.3
2018-Dec-10 11:56N 55°58' W 004°50'2 3.9
2018-Dec-10 11:26N 55°57' W 004°53'0 0.1
2018-Dec-10 10:26N 55°57' W 004°54'2 1.8
2018-Dec-10 09:35N 55°57' W 004°51'1 9.5
2018-Dec-10 09:29N 55°57' W 004°53'1 0.6
2018-Dec-10 08:33N 55°57' W 004°52'110.3
2018-Dec-10 08:30N 55°57' W 004°53'1 0.7
2018-Dec-10 07:19N 55°57' W 004°54'2 0.1
2018-Dec-09 17:06N 55°58' W 004°51'110.7
2018-Dec-09 16:59N 55°57' W 004°53'1 1.4
2018-Dec-09 16:06N 55°58' W 004°51'110.4
2018-Dec-09 15:58N 55°57' W 004°53'1 1.4
2018-Dec-09 15:06N 55°58' W 004°51'110.1
2018-Dec-09 14:59N 55°57' W 004°53'1 0.8
2018-Dec-09 14:03N 55°57' W 004°51'110.0
2018-Dec-09 13:59N 55°57' W 004°53'1 0.1
2018-Dec-08 21:55N 55°58' W 004°51'1 0.9
2018-Dec-08 20:29N 55°57' W 004°53'0 0.5
2018-Dec-08 19:32N 55°57' W 004°52'110.5
2018-Dec-08 19:28N 55°57' W 004°53'0 0.2
2018-Dec-08 18:27N 55°57' W 004°53'2 4.1
2018-Dec-08 17:57N 55°58' W 004°50'1 3.3
2018-Dec-08 17:30N 55°57' W 004°52'2 2.1
2018-Dec-08 16:41N 55°58' W 004°50'2 9.5
2018-Dec-08 16:30N 55°57' W 004°53'1 0.2
2018-Dec-08 12:34N 55°57' W 004°51'110.3
2018-Dec-08 12:30N 55°57' W 004°53'1 1.4
2018-Dec-08 11:37N 55°58' W 004°51'210.6
2018-Dec-08 11:26N 55°57' W 004°54'1 1.0
2018-Dec-08 10:30N 55°57' W 004°52'1 0.0
2018-Dec-07 13:59N 55°57' W 004°53'1 0.8
2018-Dec-07 12:34N 55°57' W 004°51'111.8
2018-Dec-07 12:30N 55°57' W 004°53'0 0.4
2018-Dec-07 11:29N 55°57' W 004°53'1 0.7
2018-Dec-07 10:26N 55°57' W 004°54'0 0.4
2018-Dec-07 09:27N 55°57' W 004°54'1 0.9
2018-Dec-07 08:31N 55°57' W 004°52'011.7
2018-Dec-07 08:29N 55°57' W 004°53'1 1.2
2018-Dec-07 07:34N 55°58' W 004°51'111.7
2018-Dec-07 07:27N 55°57' W 004°53'0 0.0
2018-Dec-06 21:46N 55°57' W 004°53'0 1.1
2018-Dec-06 21:28N 55°57' W 004°54'1 1.1
2018-Dec-06 20:30N 55°57' W 004°52'0 0.3
2018-Dec-06 19:29N 55°57' W 004°53'0 0.3
2018-Dec-06 18:28N 55°57' W 004°53'1 1.1
2018-Dec-06 17:34N 55°57' W 004°51'110.9
2018-Dec-06 17:29N 55°57' W 004°53'2 2.0
2018-Dec-06 16:39N 55°58' W 004°50'210.7
2018-Dec-06 16:27N 55°57' W 004°54'2 0.2
2018-Dec-06 08:37N 55°58' W 004°51'111.1
2018-Dec-06 08:30N 55°57' W 004°53'1 1.5
2018-Dec-06 07:33N 55°58' W 004°50'110.3
2018-Dec-06 07:28N 55°57' W 004°52'1 0.1
2018-Dec-05 21:48N 55°57' W 004°53'0 0.2
2018-Dec-05 20:26N 55°57' W 004°53'1 0.8
2018-Dec-05 19:31N 55°57' W 004°52'1 9.9
2018-Dec-05 19:27N 55°57' W 004°53'1 0.8
2018-Dec-05 18:31N 55°57' W 004°52'210.3
2018-Dec-05 18:20N 55°57' W 004°55'1 1.6
2018-Dec-05 17:28N 55°57' W 004°53'1 0.9
2018-Dec-05 16:23N 55°57' W 004°55'2 0.3
2018-Dec-05 10:32N 55°57' W 004°52'010.4
2018-Dec-05 10:29N 55°57' W 004°53'1 0.8
2018-Dec-05 09:25N 55°57' W 004°54'0 0.3
2018-Dec-05 08:10N 55°57' W 004°55'2 0.2
2018-Dec-04 21:54N 55°57' W 004°51'2 4.5
2018-Dec-04 21:29N 55°57' W 004°54'1 1.4
2018-Dec-04 20:31N 55°57' W 004°52'111.2
2018-Dec-04 20:28N 55°57' W 004°53'1 2.8
2018-Dec-04 19:57N 55°58' W 004°51'2 3.8
2018-Dec-04 19:24N 55°57' W 004°54'1 1.0
2018-Dec-04 18:30N 55°57' W 004°53'0 0.3
2018-Dec-04 17:28N 55°57' W 004°53'1 0.9
2018-Dec-04 16:33N 55°57' W 004°52'110.6
2018-Dec-04 16:26N 55°57' W 004°54'2 1.9
2018-Dec-04 15:10N 55°58' W 004°50'210.4
2018-Dec-04 15:00N 55°57' W 004°53'1 1.2
2018-Dec-04 14:30N 55°58' W 004°52'1 1.1
2018-Dec-04 14:00N 55°57' W 004°52'2 1.2
2018-Dec-04 12:42N 55°58' W 004°50'210.3
2018-Dec-04 12:30N 55°57' W 004°53'1 1.5
2018-Dec-04 11:36N 55°58' W 004°51'110.4
2018-Dec-04 11:30N 55°57' W 004°52'1 1.6
2018-Dec-04 10:38N 55°58' W 004°50'210.5
2018-Dec-04 10:24N 55°57' W 004°54'1 1.4
2018-Dec-04 09:31N 55°57' W 004°52'010.7
2018-Dec-04 09:29N 55°57' W 004°53'2 2.1
2018-Dec-04 08:41N 55°58' W 004°50'210.6
2018-Dec-04 08:30N 55°57' W 004°53'1 1.2
2018-Dec-04 07:31N 55°58' W 004°51'110.6
2018-Dec-04 07:28N 55°57' W 004°52'1 0.1
2018-Dec-03 21:56N 55°58' W 004°51'2 3.8
2018-Dec-03 21:29N 55°57' W 004°54'3 3.6
2018-Dec-03 20:41N 55°58' W 004°49'210.7
2018-Dec-03 20:29N 55°57' W 004°53'2 2.3
2018-Dec-03 19:39N 55°58' W 004°50'210.8
2018-Dec-03 19:29N 55°57' W 004°53'1 1.4
2018-Dec-03 19:00N 55°58' W 004°52'1 1.9
2018-Dec-03 18:28N 55°57' W 004°53'2 2.9
2018-Dec-03 17:40N 55°58' W 004°49'210.9
2018-Dec-03 17:29N 55°57' W 004°53'1 1.2
2018-Dec-03 16:35N 55°58' W 004°51'110.7
2018-Dec-03 16:30N 55°57' W 004°52'1 0.9
2018-Dec-03 15:08N 55°58' W 004°50'110.3
2018-Dec-03 15:00N 55°57' W 004°53'1 1.3
2018-Dec-03 14:07N 55°58' W 004°51'110.2
2018-Dec-03 14:00N 55°57' W 004°53'1 2.3
2018-Dec-03 13:29N 55°58' W 004°51'0 0.4
2018-Dec-03 12:38N 55°58' W 004°50'210.7
2018-Dec-03 12:29N 55°57' W 004°53'  
Track history (hours):
 
Tides and Currents Weather Stations Pressure Air Temp Water Temp Dewpoint Dewpoint Depression Visibility Wind Speed Wind Dir Waves Ship Positions

Ali Cat

Operator: MRCC Clyde

Last reported at 2018-Dec-13 12:17 UTC. Time now 2018-Dec-13 13:30 UTC.
Position N 55°57' W 004°55'.

Length 19 m.

Type: Passenger vessel. MMSI: 235056506.

Date/timePositionNaut miles runAvg speedWind from/ knotsBaromVisibWave heightAir tempDewpointWater temp
2018-Dec-13 12:17N 55°57' W 004°55'1 0.8
2018-Dec-13 11:25N 55°57' W 004°54'1 1.2
2018-Dec-13 10:32N 55°57' W 004°52'1 0.4
2018-Dec-13 07:20N 55°57' W 004°54'1 0.1
2018-Dec-12 21:50N 55°57' W 004°52'1 0.7
2018-Dec-12 20:25N 55°57' W 004°54'1 0.7
2018-Dec-12 19:28N 55°57' W 004°53'0 0.4
2018-Dec-12 18:31N 55°57' W 004°52'010.7
2018-Dec-12 18:30N 55°57' W 004°53'1 1.0
2018-Dec-12 17:23N 55°57' W 004°55'1 1.0
2018-Dec-12 16:28N 55°57' W 004°53'1 0.4
2018-Dec-12 14:05N 55°57' W 004°51'210.9
2018-Dec-12 13:55N 55°57' W 004°55'2 1.2
2018-Dec-12 12:33N 55°57' W 004°52'110.7
2018-Dec-12 12:25N 55°57' W 004°54'0 0.5
2018-Dec-12 11:28N 55°57' W 004°53'1 0.7
2018-Dec-12 10:31N 55°57' W 004°52'0 0.4
2018-Dec-12 09:29N 55°57' W 004°53'1 0.6
2018-Dec-12 08:32N 55°57' W 004°52'110.7
2018-Dec-12 08:25N 55°57' W 004°54'2 1.6
2018-Dec-12 07:29N 55°57' W 004°52'2 0.2
2018-Dec-11 21:41N 55°57' W 004°55'1 0.4
2018-Dec-11 20:25N 55°57' W 004°54'2 1.0
2018-Dec-11 18:36N 55°58' W 004°51'210.0
2018-Dec-11 18:22N 55°57' W 004°55'1 1.2
2018-Dec-11 17:28N 55°57' W 004°53'0 0.0
2018-Dec-11 14:58N 55°57' W 004°53'0 0.0
2018-Dec-11 13:59N 55°57' W 004°53'1 0.6
2018-Dec-11 12:36N 55°58' W 004°51'1 9.9
2018-Dec-11 12:29N 55°57' W 004°54'1 0.8
2018-Dec-11 11:31N 55°57' W 004°52'110.3
2018-Dec-11 11:26N 55°57' W 004°53'1 1.1
2018-Dec-11 10:32N 55°57' W 004°52'110.6
2018-Dec-11 10:29N 55°57' W 004°53'0 0.4
2018-Dec-11 09:32N 55°57' W 004°52'110.1
2018-Dec-11 09:27N 55°57' W 004°53'0 0.1
2018-Dec-11 08:28N 55°57' W 004°53'1 1.3
2018-Dec-11 07:30N 55°57' W 004°51'1 0.1
2018-Dec-10 21:57N 55°58' W 004°50'2 5.1
2018-Dec-10 21:29N 55°57' W 004°54'2 2.1
2018-Dec-10 20:35N 55°58' W 004°51'110.5
2018-Dec-10 20:30N 55°57' W 004°52'1 1.2
2018-Dec-10 19:36N 55°58' W 004°50'110.8
2018-Dec-10 19:29N 55°57' W 004°53'1 0.7
2018-Dec-10 18:36N 55°57' W 004°51'110.2
2018-Dec-10 18:30N 55°57' W 004°53'0 0.1
2018-Dec-10 17:29N 55°57' W 004°53'1 1.5
2018-Dec-10 16:36N 55°58' W 004°51'1 9.9
2018-Dec-10 16:30N 55°57' W 004°52'1 0.4
2018-Dec-10 14:05N 55°57' W 004°51'110.1
2018-Dec-10 13:58N 55°57' W 004°53'2 1.2
2018-Dec-10 12:38N 55°58' W 004°50'110.2
2018-Dec-10 12:30N 55°57' W 004°52'1 2.3
2018-Dec-10 11:56N 55°58' W 004°50'2 3.9
2018-Dec-10 11:26N 55°57' W 004°53'0 0.1
2018-Dec-10 10:26N 55°57' W 004°54'2 1.8
2018-Dec-10 09:35N 55°57' W 004°51'1 9.5
2018-Dec-10 09:29N 55°57' W 004°53'1 0.6
2018-Dec-10 08:33N 55°57' W 004°52'110.3
2018-Dec-10 08:30N 55°57' W 004°53'1 0.7
2018-Dec-10 07:19N 55°57' W 004°54'2 0.1
2018-Dec-09 17:06N 55°58' W 004°51'110.7
2018-Dec-09 16:59N 55°57' W 004°53'1 1.4
2018-Dec-09 16:06N 55°58' W 004°51'110.4
2018-Dec-09 15:58N 55°57' W 004°53'1 1.4
2018-Dec-09 15:06N 55°58' W 004°51'110.1
2018-Dec-09 14:59N 55°57' W 004°53'1 0.8
2018-Dec-09 14:03N 55°57' W 004°51'110.0
2018-Dec-09 13:59N 55°57' W 004°53'1 0.1
2018-Dec-08 21:55N 55°58' W 004°51'1 0.9
2018-Dec-08 20:29N 55°57' W 004°53'0 0.5
2018-Dec-08 19:32N 55°57' W 004°52'110.5
2018-Dec-08 19:28N 55°57' W 004°53'0 0.2
2018-Dec-08 18:27N 55°57' W 004°53'2 4.1
2018-Dec-08 17:57N 55°58' W 004°50'1 3.3
2018-Dec-08 17:30N 55°57' W 004°52'2 2.1
2018-Dec-08 16:41N 55°58' W 004°50'2 9.5
2018-Dec-08 16:30N 55°57' W 004°53'1 0.2
2018-Dec-08 12:34N 55°57' W 004°51'110.3
2018-Dec-08 12:30N 55°57' W 004°53'1 1.4
2018-Dec-08 11:37N 55°58' W 004°51'210.6
2018-Dec-08 11:26N 55°57' W 004°54'1 1.0
2018-Dec-08 10:30N 55°57' W 004°52'1 0.0
2018-Dec-07 13:59N 55°57' W 004°53'1 0.8
2018-Dec-07 12:34N 55°57' W 004°51'111.8
2018-Dec-07 12:30N 55°57' W 004°53'0 0.4
2018-Dec-07 11:29N 55°57' W 004°53'1 0.7
2018-Dec-07 10:26N 55°57' W 004°54'0 0.4
2018-Dec-07 09:27N 55°57' W 004°54'1 0.9
2018-Dec-07 08:31N 55°57' W 004°52'011.7
2018-Dec-07 08:29N 55°57' W 004°53'1 1.2
2018-Dec-07 07:34N 55°58' W 004°51'111.7
2018-Dec-07 07:27N 55°57' W 004°53'0 0.0
2018-Dec-06 21:46N 55°57' W 004°53'0 1.1
2018-Dec-06 21:28N 55°57' W 004°54'1 1.1
2018-Dec-06 20:30N 55°57' W 004°52'0 0.3
2018-Dec-06 19:29N 55°57' W 004°53'0 0.3
2018-Dec-06 18:28N 55°57' W 004°53'1 1.1
2018-Dec-06 17:34N 55°57' W 004°51'110.9
2018-Dec-06 17:29N 55°57' W 004°53'2 2.0
2018-Dec-06 16:39N 55°58' W 004°50'210.7
2018-Dec-06 16:27N 55°57' W 004°54'2 0.2
2018-Dec-06 08:37N 55°58' W 004°51'111.1
2018-Dec-06 08:30N 55°57' W 004°53'1 1.5
2018-Dec-06 07:33N 55°58' W 004°50'110.3
2018-Dec-06 07:28N 55°57' W 004°52'1 0.1
2018-Dec-05 21:48N 55°57' W 004°53'0 0.2
2018-Dec-05 20:26N 55°57' W 004°53'1 0.8
2018-Dec-05 19:31N 55°57' W 004°52'1 9.9
2018-Dec-05 19:27N 55°57' W 004°53'1 0.8
2018-Dec-05 18:31N 55°57' W 004°52'210.3
2018-Dec-05 18:20N 55°57' W 004°55'1 1.6
2018-Dec-05 17:28N 55°57' W 004°53'1 0.9
2018-Dec-05 16:23N 55°57' W 004°55'2 0.3
2018-Dec-05 10:32N 55°57' W 004°52'010.4
2018-Dec-05 10:29N 55°57' W 004°53'1 0.8
2018-Dec-05 09:25N 55°57' W 004°54'0 0.3
2018-Dec-05 08:10N 55°57' W 004°55'2 0.2
2018-Dec-04 21:54N 55°57' W 004°51'2 4.5
2018-Dec-04 21:29N 55°57' W 004°54'1 1.4
2018-Dec-04 20:31N 55°57' W 004°52'111.2
2018-Dec-04 20:28N 55°57' W 004°53'1 2.8
2018-Dec-04 19:57N 55°58' W 004°51'2 3.8
2018-Dec-04 19:24N 55°57' W 004°54'1 1.0
2018-Dec-04 18:30N 55°57' W 004°53'0 0.3
2018-Dec-04 17:28N 55°57' W 004°53'1 0.9
2018-Dec-04 16:33N 55°57' W 004°52'110.6
2018-Dec-04 16:26N 55°57' W 004°54'2 1.9
2018-Dec-04 15:10N 55°58' W 004°50'210.4
2018-Dec-04 15:00N 55°57' W 004°53'1 1.2
2018-Dec-04 14:30N 55°58' W 004°52'1 1.1
2018-Dec-04 14:00N 55°57' W 004°52'2 1.2
2018-Dec-04 12:42N 55°58' W 004°50'210.3
2018-Dec-04 12:30N 55°57' W 004°53'1 1.5
2018-Dec-04 11:36N 55°58' W 004°51'110.4
2018-Dec-04 11:30N 55°57' W 004°52'1 1.6
2018-Dec-04 10:38N 55°58' W 004°50'210.5
2018-Dec-04 10:24N 55°57' W 004°54'1 1.4
2018-Dec-04 09:31N 55°57' W 004°52'010.7
2018-Dec-04 09:29N 55°57' W 004°53'2 2.1
2018-Dec-04 08:41N 55°58' W 004°50'210.6
2018-Dec-04 08:30N 55°57' W 004°53'1 1.2
2018-Dec-04 07:31N 55°58' W 004°51'110.6
2018-Dec-04 07:28N 55°57' W 004°52'1 0.1
2018-Dec-03 21:56N 55°58' W 004°51'2 3.8
2018-Dec-03 21:29N 55°57' W 004°54'3 3.6
2018-Dec-03 20:41N 55°58' W 004°49'210.7
2018-Dec-03 20:29N 55°57' W 004°53'2 2.3
2018-Dec-03 19:39N 55°58' W 004°50'210.8
2018-Dec-03 19:29N 55°57' W 004°53'1 1.4
2018-Dec-03 19:00N 55°58' W 004°52'1 1.9
2018-Dec-03 18:28N 55°57' W 004°53'2 2.9
2018-Dec-03 17:40N 55°58' W 004°49'210.9
2018-Dec-03 17:29N 55°57' W 004°53'1 1.2
2018-Dec-03 16:35N 55°58' W 004°51'110.7
2018-Dec-03 16:30N 55°57' W 004°52'1 0.9
2018-Dec-03 15:08N 55°58' W 004°50'110.3
2018-Dec-03 15:00N 55°57' W 004°53'1 1.3
2018-Dec-03 14:07N 55°58' W 004°51'110.2
2018-Dec-03 14:00N 55°57' W 004°53'1 2.3
2018-Dec-03 13:29N 55°58' W 004°51'0 0.4
2018-Dec-03 12:38N 55°58' W 004°50'210.7
2018-Dec-03 12:29N 55°57' W 004°53'  

Dump ship's entire track history